sensor_id;sensor_type;location;lat;lon;timestamp;P1;durP1;ratioP1;P2;durP2;ratioP2
10041;SDS011;5061;49.068;12.058;2023-08-06T00:02:01;5.60;;;5.10;;
10041;SDS011;5061;49.068;12.058;2023-08-06T00:05:22;4.73;;;4.33;;
10041;SDS011;5061;49.068;12.058;2023-08-06T00:08:42;4.93;;;4.53;;
10041;SDS011;5061;49.068;12.058;2023-08-06T00:12:03;4.10;;;3.70;;
10041;SDS011;5061;49.068;12.058;2023-08-06T00:15:24;4.30;;;3.77;;
10041;SDS011;5061;49.068;12.058;2023-08-06T00:18:48;3.53;;;3.23;;
10041;SDS011;5061;49.068;12.058;2023-08-06T00:22:08;5.03;;;4.03;;
10041;SDS011;5061;49.068;12.058;2023-08-06T00:25:29;3.93;;;3.57;;
10041;SDS011;5061;49.068;12.058;2023-08-06T00:28:50;3.63;;;3.33;;
10041;SDS011;5061;49.068;12.058;2023-08-06T00:32:11;3.27;;;2.97;;
10041;SDS011;5061;49.068;12.058;2023-08-06T00:35:32;4.87;;;3.90;;
10041;SDS011;5061;49.068;12.058;2023-08-06T00:38:52;4.70;;;4.30;;
10041;SDS011;5061;49.068;12.058;2023-08-06T00:42:13;4.30;;;3.90;;
10041;SDS011;5061;49.068;12.058;2023-08-06T00:49:27;4.97;;;4.47;;
10041;SDS011;5061;49.068;12.058;2023-08-06T00:56:47;5.57;;;4.93;;
10041;SDS011;5061;49.068;12.058;2023-08-06T01:00:07;4.63;;;4.20;;
10041;SDS011;5061;49.068;12.058;2023-08-06T01:03:29;5.07;;;4.30;;
10041;SDS011;5061;49.068;12.058;2023-08-06T01:17:48;4.63;;;3.47;;
10041;SDS011;5061;49.068;12.058;2023-08-06T01:21:16;4.20;;;3.77;;
10041;SDS011;5061;49.068;12.058;2023-08-06T01:24:40;4.00;;;2.87;;
10041;SDS011;5061;49.068;12.058;2023-08-06T01:28:10;3.40;;;3.10;;
10041;SDS011;5061;49.068;12.058;2023-08-06T01:31:38;3.07;;;2.77;;
10041;SDS011;5061;49.068;12.058;2023-08-06T01:35:09;2.87;;;2.57;;
10041;SDS011;5061;49.068;12.058;2023-08-06T01:38:34;3.17;;;2.40;;
10041;SDS011;5061;49.068;12.058;2023-08-06T01:42:05;2.60;;;2.30;;
10041;SDS011;5061;49.068;12.058;2023-08-06T01:45:27;2.33;;;2.13;;
10041;SDS011;5061;49.068;12.058;2023-08-06T01:48:48;2.10;;;1.90;;
10041;SDS011;5061;49.068;12.058;2023-08-06T01:52:09;2.03;;;1.73;;
10041;SDS011;5061;49.068;12.058;2023-08-06T01:55:29;2.10;;;1.90;;
10041;SDS011;5061;49.068;12.058;2023-08-06T01:58:50;1.83;;;1.73;;
10041;SDS011;5061;49.068;12.058;2023-08-06T02:02:11;1.70;;;1.53;;
10041;SDS011;5061;49.068;12.058;2023-08-06T02:05:35;2.47;;;1.97;;
10041;SDS011;5061;49.068;12.058;2023-08-06T02:08:55;2.30;;;2.10;;
10041;SDS011;5061;49.068;12.058;2023-08-06T02:12:16;2.10;;;1.90;;
10041;SDS011;5061;49.068;12.058;2023-08-06T02:15:43;2.10;;;1.90;;
10041;SDS011;5061;49.068;12.058;2023-08-06T02:19:04;2.33;;;2.13;;
10041;SDS011;5061;49.068;12.058;2023-08-06T02:22:25;2.40;;;2.20;;
10041;SDS011;5061;49.068;12.058;2023-08-06T02:25:46;1.87;;;1.77;;
10041;SDS011;5061;49.068;12.058;2023-08-06T02:29:06;2.30;;;2.10;;
10041;SDS011;5061;49.068;12.058;2023-08-06T02:32:27;1.93;;;1.70;;
10041;SDS011;5061;49.068;12.058;2023-08-06T02:35:49;2.23;;;1.97;;
10041;SDS011;5061;49.068;12.058;2023-08-06T02:39:10;2.57;;;1.90;;
10041;SDS011;5061;49.068;12.058;2023-08-06T02:42:31;2.10;;;1.90;;
10041;SDS011;5061;49.068;12.058;2023-08-06T02:45:51;1.60;;;1.50;;
10041;SDS011;5061;49.068;12.058;2023-08-06T02:49:12;1.80;;;1.70;;
10041;SDS011;5061;49.068;12.058;2023-08-06T02:52:32;1.40;;;1.30;;
10041;SDS011;5061;49.068;12.058;2023-08-06T02:55:54;1.47;;;1.37;;
10041;SDS011;5061;49.068;12.058;2023-08-06T02:59:15;2.00;;;1.80;;
10041;SDS011;5061;49.068;12.058;2023-08-06T03:02:35;1.90;;;1.77;;
10041;SDS011;5061;49.068;12.058;2023-08-06T03:05:56;3.33;;;2.53;;
10041;SDS011;5061;49.068;12.058;2023-08-06T03:09:17;2.03;;;1.83;;
10041;SDS011;5061;49.068;12.058;2023-08-06T03:12:40;2.47;;;2.13;;
10041;SDS011;5061;49.068;12.058;2023-08-06T03:16:01;1.83;;;1.50;;
10041;SDS011;5061;49.068;12.058;2023-08-06T03:19:22;1.57;;;1.47;;
10041;SDS011;5061;49.068;12.058;2023-08-06T03:22:42;1.60;;;1.50;;
10041;SDS011;5061;49.068;12.058;2023-08-06T03:26:03;1.57;;;1.47;;
10041;SDS011;5061;49.068;12.058;2023-08-06T03:29:24;1.87;;;1.50;;
10041;SDS011;5061;49.068;12.058;2023-08-06T03:32:44;2.47;;;1.77;;
10041;SDS011;5061;49.068;12.058;2023-08-06T03:36:07;1.87;;;1.50;;
10041;SDS011;5061;49.068;12.058;2023-08-06T03:39:27;1.43;;;1.33;;
10041;SDS011;5061;49.068;12.058;2023-08-06T03:42:48;1.97;;;1.77;;
10041;SDS011;5061;49.068;12.058;2023-08-06T03:46:09;1.73;;;1.60;;
10041;SDS011;5061;49.068;12.058;2023-08-06T03:49:29;2.00;;;1.60;;
10041;SDS011;5061;49.068;12.058;2023-08-06T03:52:50;1.90;;;1.67;;
10041;SDS011;5061;49.068;12.058;2023-08-06T03:56:11;1.93;;;1.60;;
10041;SDS011;5061;49.068;12.058;2023-08-06T03:59:31;1.53;;;1.43;;
10041;SDS011;5061;49.068;12.058;2023-08-06T04:02:52;2.67;;;2.20;;
10041;SDS011;5061;49.068;12.058;2023-08-06T04:06:13;2.20;;;2.00;;
10041;SDS011;5061;49.068;12.058;2023-08-06T04:09:33;1.90;;;1.80;;
10041;SDS011;5061;49.068;12.058;2023-08-06T04:12:54;1.70;;;1.60;;
10041;SDS011;5061;49.068;12.058;2023-08-06T04:16:14;2.33;;;1.93;;
10041;SDS011;5061;49.068;12.058;2023-08-06T04:19:35;1.77;;;1.63;;
10041;SDS011;5061;49.068;12.058;2023-08-06T04:22:56;1.73;;;1.50;;
10041;SDS011;5061;49.068;12.058;2023-08-06T04:26:16;1.70;;;1.60;;
10041;SDS011;5061;49.068;12.058;2023-08-06T04:29:45;2.30;;;1.70;;
10041;SDS011;5061;49.068;12.058;2023-08-06T04:33:05;1.40;;;1.30;;
10041;SDS011;5061;49.068;12.058;2023-08-06T04:36:26;1.60;;;1.50;;
10041;SDS011;5061;49.068;12.058;2023-08-06T04:39:46;2.23;;;1.60;;
10041;SDS011;5061;49.068;12.058;2023-08-06T04:43:07;1.50;;;1.40;;
10041;SDS011;5061;49.068;12.058;2023-08-06T04:46:28;1.40;;;1.30;;
10041;SDS011;5061;49.068;12.058;2023-08-06T04:49:48;1.50;;;1.40;;
10041;SDS011;5061;49.068;12.058;2023-08-06T04:53:09;2.60;;;1.70;;
10041;SDS011;5061;49.068;12.058;2023-08-06T04:56:29;1.50;;;1.40;;
10041;SDS011;5061;49.068;12.058;2023-08-06T04:59:50;1.80;;;1.70;;
10041;SDS011;5061;49.068;12.058;2023-08-06T05:03:11;1.80;;;1.70;;
10041;SDS011;5061;49.068;12.058;2023-08-06T05:06:31;1.57;;;1.47;;
10041;SDS011;5061;49.068;12.058;2023-08-06T05:09:52;2.20;;;1.87;;
10041;SDS011;5061;49.068;12.058;2023-08-06T05:13:13;1.60;;;1.50;;
10041;SDS011;5061;49.068;12.058;2023-08-06T05:16:37;2.33;;;1.80;;
10041;SDS011;5061;49.068;12.058;2023-08-06T05:19:57;1.53;;;1.43;;
10041;SDS011;5061;49.068;12.058;2023-08-06T05:23:18;2.13;;;1.93;;
10041;SDS011;5061;49.068;12.058;2023-08-06T05:26:42;1.80;;;1.70;;
10041;SDS011;5061;49.068;12.058;2023-08-06T05:30:06;1.83;;;1.73;;
10041;SDS011;5061;49.068;12.058;2023-08-06T05:33:27;1.80;;;1.70;;
10041;SDS011;5061;49.068;12.058;2023-08-06T05:36:48;2.83;;;1.80;;
10041;SDS011;5061;49.068;12.058;2023-08-06T05:40:09;2.03;;;1.80;;
10041;SDS011;5061;49.068;12.058;2023-08-06T05:43:29;2.30;;;2.10;;
10041;SDS011;5061;49.068;12.058;2023-08-06T05:46:50;1.60;;;1.50;;
10041;SDS011;5061;49.068;12.058;2023-08-06T05:50:13;1.67;;;1.57;;
10041;SDS011;5061;49.068;12.058;2023-08-06T05:53:34;1.70;;;1.60;;
10041;SDS011;5061;49.068;12.058;2023-08-06T05:56:55;1.60;;;1.50;;
10041;SDS011;5061;49.068;12.058;2023-08-06T06:00:15;2.13;;;1.97;;
10041;SDS011;5061;49.068;12.058;2023-08-06T06:03:36;1.70;;;1.60;;
10041;SDS011;5061;49.068;12.058;2023-08-06T06:06:57;2.03;;;1.83;;
10041;SDS011;5061;49.068;12.058;2023-08-06T06:10:17;1.80;;;1.70;;
10041;SDS011;5061;49.068;12.058;2023-08-06T06:13:38;1.73;;;1.63;;
10041;SDS011;5061;49.068;12.058;2023-08-06T06:16:59;2.17;;;1.87;;
10041;SDS011;5061;49.068;12.058;2023-08-06T06:20:20;2.60;;;1.67;;
10041;SDS011;5061;49.068;12.058;2023-08-06T06:23:41;1.70;;;1.60;;
10041;SDS011;5061;49.068;12.058;2023-08-06T06:27:01;2.10;;;1.90;;
10041;SDS011;5061;49.068;12.058;2023-08-06T06:30:22;1.80;;;1.70;;
10041;SDS011;5061;49.068;12.058;2023-08-06T06:33:43;2.67;;;2.23;;
10041;SDS011;5061;49.068;12.058;2023-08-06T06:37:04;2.60;;;2.37;;
10041;SDS011;5061;49.068;12.058;2023-08-06T06:40:25;2.67;;;2.47;;
10041;SDS011;5061;49.068;12.058;2023-08-06T06:43:49;2.80;;;2.60;;
10041;SDS011;5061;49.068;12.058;2023-08-06T06:47:12;3.10;;;2.53;;
10041;SDS011;5061;49.068;12.058;2023-08-06T06:50:33;2.90;;;2.40;;
10041;SDS011;5061;49.068;12.058;2023-08-06T06:53:59;2.63;;;2.40;;
10041;SDS011;5061;49.068;12.058;2023-08-06T06:57:19;2.60;;;2.40;;
10041;SDS011;5061;49.068;12.058;2023-08-06T07:00:40;3.37;;;2.80;;
10041;SDS011;5061;49.068;12.058;2023-08-06T07:04:01;3.00;;;2.70;;
10041;SDS011;5061;49.068;12.058;2023-08-06T07:07:24;2.90;;;2.53;;
10041;SDS011;5061;49.068;12.058;2023-08-06T07:10:45;3.23;;;2.93;;
10041;SDS011;5061;49.068;12.058;2023-08-06T07:14:07;2.90;;;2.50;;
10041;SDS011;5061;49.068;12.058;2023-08-06T07:17:28;3.13;;;2.83;;
10041;SDS011;5061;49.068;12.058;2023-08-06T07:20:49;3.20;;;2.80;;
10041;SDS011;5061;49.068;12.058;2023-08-06T07:24:14;2.73;;;2.53;;
10041;SDS011;5061;49.068;12.058;2023-08-06T07:27:35;3.20;;;2.83;;
10041;SDS011;5061;49.068;12.058;2023-08-06T07:30:56;3.93;;;3.00;;
10041;SDS011;5061;49.068;12.058;2023-08-06T07:34:17;2.67;;;2.47;;
10041;SDS011;5061;49.068;12.058;2023-08-06T07:37:41;3.10;;;2.63;;
10041;SDS011;5061;49.068;12.058;2023-08-06T07:41:02;3.43;;;3.10;;
10041;SDS011;5061;49.068;12.058;2023-08-06T07:44:23;2.60;;;2.40;;
10041;SDS011;5061;49.068;12.058;2023-08-06T07:47:44;8.53;;;2.63;;
10041;SDS011;5061;49.068;12.058;2023-08-06T07:51:05;5.00;;;2.43;;
10041;SDS011;5061;49.068;12.058;2023-08-06T07:54:26;3.03;;;2.73;;
10041;SDS011;5061;49.068;12.058;2023-08-06T07:57:48;2.47;;;2.27;;
10041;SDS011;5061;49.068;12.058;2023-08-06T08:01:18;3.00;;;2.40;;
10041;SDS011;5061;49.068;12.058;2023-08-06T08:04:38;2.33;;;2.13;;
10041;SDS011;5061;49.068;12.058;2023-08-06T08:07:59;2.13;;;1.67;;
10041;SDS011;5061;49.068;12.058;2023-08-06T08:11:22;1.77;;;1.67;;
10041;SDS011;5061;49.068;12.058;2023-08-06T08:14:42;3.57;;;1.90;;
10041;SDS011;5061;49.068;12.058;2023-08-06T08:18:05;2.00;;;1.80;;
10041;SDS011;5061;49.068;12.058;2023-08-06T08:21:29;2.20;;;1.60;;
10041;SDS011;5061;49.068;12.058;2023-08-06T08:24:49;3.40;;;2.10;;
10041;SDS011;5061;49.068;12.058;2023-08-06T08:28:10;2.17;;;1.53;;
10041;SDS011;5061;49.068;12.058;2023-08-06T08:31:31;2.10;;;1.80;;
10041;SDS011;5061;49.068;12.058;2023-08-06T08:34:58;1.50;;;1.40;;
10041;SDS011;5061;49.068;12.058;2023-08-06T08:38:19;2.50;;;2.20;;
10041;SDS011;5061;49.068;12.058;2023-08-06T08:41:42;2.80;;;1.70;;
10041;SDS011;5061;49.068;12.058;2023-08-06T08:45:13;2.80;;;1.73;;
10041;SDS011;5061;49.068;12.058;2023-08-06T08:48:34;1.87;;;1.67;;
10041;SDS011;5061;49.068;12.058;2023-08-06T08:51:58;1.57;;;1.47;;
10041;SDS011;5061;49.068;12.058;2023-08-06T08:55:24;1.93;;;1.73;;
10041;SDS011;5061;49.068;12.058;2023-08-06T08:58:46;3.43;;;2.17;;
10041;SDS011;5061;49.068;12.058;2023-08-06T09:02:29;1.90;;;1.70;;
10041;SDS011;5061;49.068;12.058;2023-08-06T09:05:53;4.33;;;1.50;;
10041;SDS011;5061;49.068;12.058;2023-08-06T09:09:31;3.93;;;1.77;;
10041;SDS011;5061;49.068;12.058;2023-08-06T09:12:59;1.83;;;1.57;;
10041;SDS011;5061;49.068;12.058;2023-08-06T09:16:24;1.80;;;1.70;;
10041;SDS011;5061;49.068;12.058;2023-08-06T09:19:45;2.00;;;1.63;;
10041;SDS011;5061;49.068;12.058;2023-08-06T09:23:10;3.23;;;1.93;;
10041;SDS011;5061;49.068;12.058;2023-08-06T09:26:34;3.00;;;1.73;;
10041;SDS011;5061;49.068;12.058;2023-08-06T09:29:55;1.70;;;1.60;;
10041;SDS011;5061;49.068;12.058;2023-08-06T09:33:18;2.90;;;1.53;;
10041;SDS011;5061;49.068;12.058;2023-08-06T09:36:40;1.63;;;1.53;;
10041;SDS011;5061;49.068;12.058;2023-08-06T09:40:02;2.00;;;1.60;;
10041;SDS011;5061;49.068;12.058;2023-08-06T09:43:25;1.37;;;1.00;;
10041;SDS011;5061;49.068;12.058;2023-08-06T09:46:53;2.27;;;1.50;;
10041;SDS011;5061;49.068;12.058;2023-08-06T09:50:16;1.67;;;1.37;;
10041;SDS011;5061;49.068;12.058;2023-08-06T09:53:40;1.63;;;1.20;;
10041;SDS011;5061;49.068;12.058;2023-08-06T09:57:02;1.00;;;0.90;;
10041;SDS011;5061;49.068;12.058;2023-08-06T10:00:23;0.90;;;0.80;;
10041;SDS011;5061;49.068;12.058;2023-08-06T10:03:53;0.80;;;0.70;;
10041;SDS011;5061;49.068;12.058;2023-08-06T10:07:14;1.10;;;0.90;;
10041;SDS011;5061;49.068;12.058;2023-08-06T10:10:37;0.90;;;0.90;;
10041;SDS011;5061;49.068;12.058;2023-08-06T10:17:51;2.17;;;1.17;;
10041;SDS011;5061;49.068;12.058;2023-08-06T10:21:14;1.13;;;1.03;;
10041;SDS011;5061;49.068;12.058;2023-08-06T10:24:55;1.20;;;1.10;;
10041;SDS011;5061;49.068;12.058;2023-08-06T10:28:17;3.20;;;1.10;;
10041;SDS011;5061;49.068;12.058;2023-08-06T10:31:55;2.60;;;1.07;;
10041;SDS011;5061;49.068;12.058;2023-08-06T10:35:40;1.13;;;1.00;;
10041;SDS011;5061;49.068;12.058;2023-08-06T10:39:08;1.83;;;1.10;;
10041;SDS011;5061;49.068;12.058;2023-08-06T10:42:33;0.90;;;0.80;;
10041;SDS011;5061;49.068;12.058;2023-08-06T10:45:54;1.30;;;1.00;;
10041;SDS011;5061;49.068;12.058;2023-08-06T10:49:43;1.50;;;1.20;;
10041;SDS011;5061;49.068;12.058;2023-08-06T10:53:12;1.10;;;1.00;;
10041;SDS011;5061;49.068;12.058;2023-08-06T10:56:46;1.10;;;1.00;;
10041;SDS011;5061;49.068;12.058;2023-08-06T11:00:08;1.27;;;1.00;;
10041;SDS011;5061;49.068;12.058;2023-08-06T11:03:48;1.47;;;0.90;;
10041;SDS011;5061;49.068;12.058;2023-08-06T11:07:29;0.90;;;0.90;;
10041;SDS011;5061;49.068;12.058;2023-08-06T11:10:52;3.10;;;0.90;;
10041;SDS011;5061;49.068;12.058;2023-08-06T11:14:16;1.00;;;0.80;;
10041;SDS011;5061;49.068;12.058;2023-08-06T11:17:42;0.97;;;0.87;;
10041;SDS011;5061;49.068;12.058;2023-08-06T11:21:03;0.80;;;0.80;;
10041;SDS011;5061;49.068;12.058;2023-08-06T11:24:27;1.20;;;0.77;;
10041;SDS011;5061;49.068;12.058;2023-08-06T11:27:47;0.80;;;0.80;;
10041;SDS011;5061;49.068;12.058;2023-08-06T11:31:18;1.00;;;0.80;;
10041;SDS011;5061;49.068;12.058;2023-08-06T11:34:42;1.10;;;1.00;;
10041;SDS011;5061;49.068;12.058;2023-08-06T11:38:03;0.90;;;0.70;;
10041;SDS011;5061;49.068;12.058;2023-08-06T11:41:24;1.10;;;1.00;;
10041;SDS011;5061;49.068;12.058;2023-08-06T11:44:45;1.30;;;0.90;;
10041;SDS011;5061;49.068;12.058;2023-08-06T11:48:06;0.80;;;0.70;;
10041;SDS011;5061;49.068;12.058;2023-08-06T11:51:32;0.93;;;0.80;;
10041;SDS011;5061;49.068;12.058;2023-08-06T11:58:26;0.80;;;0.80;;
10041;SDS011;5061;49.068;12.058;2023-08-06T12:01:55;1.00;;;0.90;;
10041;SDS011;5061;49.068;12.058;2023-08-06T12:05:21;0.80;;;0.70;;
10041;SDS011;5061;49.068;12.058;2023-08-06T12:08:46;2.97;;;0.90;;
10041;SDS011;5061;49.068;12.058;2023-08-06T12:12:10;0.90;;;0.70;;
10041;SDS011;5061;49.068;12.058;2023-08-06T12:15:34;0.80;;;0.60;;
10041;SDS011;5061;49.068;12.058;2023-08-06T12:19:00;1.00;;;0.70;;
10041;SDS011;5061;49.068;12.058;2023-08-06T12:22:21;1.77;;;0.73;;
10041;SDS011;5061;49.068;12.058;2023-08-06T12:25:42;0.70;;;0.60;;
10041;SDS011;5061;49.068;12.058;2023-08-06T12:29:04;0.80;;;0.77;;
10041;SDS011;5061;49.068;12.058;2023-08-06T12:32:28;0.70;;;0.70;;
10041;SDS011;5061;49.068;12.058;2023-08-06T12:35:49;0.80;;;0.70;;
10041;SDS011;5061;49.068;12.058;2023-08-06T12:39:10;0.80;;;0.70;;
10041;SDS011;5061;49.068;12.058;2023-08-06T12:42:30;0.80;;;0.70;;
10041;SDS011;5061;49.068;12.058;2023-08-06T12:45:51;1.93;;;0.93;;
10041;SDS011;5061;49.068;12.058;2023-08-06T12:49:11;1.07;;;0.80;;
10041;SDS011;5061;49.068;12.058;2023-08-06T12:52:32;0.90;;;0.80;;
10041;SDS011;5061;49.068;12.058;2023-08-06T12:55:58;1.07;;;0.63;;
10041;SDS011;5061;49.068;12.058;2023-08-06T12:59:25;0.70;;;0.70;;
10041;SDS011;5061;49.068;12.058;2023-08-06T13:02:46;0.70;;;0.70;;
10041;SDS011;5061;49.068;12.058;2023-08-06T13:06:10;0.87;;;0.87;;
10041;SDS011;5061;49.068;12.058;2023-08-06T13:09:31;0.80;;;0.77;;
10041;SDS011;5061;49.068;12.058;2023-08-06T13:12:54;1.00;;;0.70;;
10041;SDS011;5061;49.068;12.058;2023-08-06T13:16:17;1.00;;;0.70;;
10041;SDS011;5061;49.068;12.058;2023-08-06T13:19:38;0.70;;;0.70;;
10041;SDS011;5061;49.068;12.058;2023-08-06T13:22:59;1.00;;;0.70;;
10041;SDS011;5061;49.068;12.058;2023-08-06T13:26:22;0.80;;;0.70;;
10041;SDS011;5061;49.068;12.058;2023-08-06T13:29:45;0.70;;;0.70;;
10041;SDS011;5061;49.068;12.058;2023-08-06T13:33:14;0.90;;;0.70;;
10041;SDS011;5061;49.068;12.058;2023-08-06T13:36:40;0.70;;;0.60;;
10041;SDS011;5061;49.068;12.058;2023-08-06T13:40:10;0.70;;;0.60;;
10041;SDS011;5061;49.068;12.058;2023-08-06T13:43:36;0.70;;;0.60;;
10041;SDS011;5061;49.068;12.058;2023-08-06T13:47:00;2.70;;;0.70;;
10041;SDS011;5061;49.068;12.058;2023-08-06T13:50:21;0.70;;;0.60;;
10041;SDS011;5061;49.068;12.058;2023-08-06T13:53:49;1.30;;;0.73;;
10041;SDS011;5061;49.068;12.058;2023-08-06T13:57:12;0.70;;;0.70;;
10041;SDS011;5061;49.068;12.058;2023-08-06T14:00:37;1.10;;;0.60;;
10041;SDS011;5061;49.068;12.058;2023-08-06T14:04:07;0.80;;;0.70;;
10041;SDS011;5061;49.068;12.058;2023-08-06T14:07:30;0.80;;;0.70;;
10041;SDS011;5061;49.068;12.058;2023-08-06T14:10:58;0.90;;;0.70;;
10041;SDS011;5061;49.068;12.058;2023-08-06T14:14:25;1.53;;;0.70;;
10041;SDS011;5061;49.068;12.058;2023-08-06T14:17:54;1.53;;;0.70;;
10041;SDS011;5061;49.068;12.058;2023-08-06T14:21:14;0.90;;;0.60;;
10041;SDS011;5061;49.068;12.058;2023-08-06T14:24:35;0.70;;;0.70;;
10041;SDS011;5061;49.068;12.058;2023-08-06T14:28:09;0.80;;;0.70;;
10041;SDS011;5061;49.068;12.058;2023-08-06T14:31:29;2.83;;;0.80;;
10041;SDS011;5061;49.068;12.058;2023-08-06T14:34:50;0.70;;;0.60;;
10041;SDS011;5061;49.068;12.058;2023-08-06T14:38:13;0.70;;;0.70;;
10041;SDS011;5061;49.068;12.058;2023-08-06T14:41:37;0.70;;;0.60;;
10041;SDS011;5061;49.068;12.058;2023-08-06T14:45:00;0.70;;;0.60;;
10041;SDS011;5061;49.068;12.058;2023-08-06T14:48:21;0.87;;;0.70;;
10041;SDS011;5061;49.068;12.058;2023-08-06T14:51:41;0.70;;;0.60;;
10041;SDS011;5061;49.068;12.058;2023-08-06T14:55:08;0.70;;;0.70;;
10041;SDS011;5061;49.068;12.058;2023-08-06T14:58:29;0.80;;;0.70;;
10041;SDS011;5061;49.068;12.058;2023-08-06T15:01:50;0.70;;;0.67;;
10041;SDS011;5061;49.068;12.058;2023-08-06T15:05:11;0.70;;;0.70;;
10041;SDS011;5061;49.068;12.058;2023-08-06T15:08:35;0.70;;;0.60;;
10041;SDS011;5061;49.068;12.058;2023-08-06T15:12:06;0.80;;;0.70;;
10041;SDS011;5061;49.068;12.058;2023-08-06T15:15:30;1.07;;;0.70;;
10041;SDS011;5061;49.068;12.058;2023-08-06T15:19:07;0.80;;;0.73;;
10041;SDS011;5061;49.068;12.058;2023-08-06T15:22:36;0.70;;;0.67;;
10041;SDS011;5061;49.068;12.058;2023-08-06T15:25:57;0.90;;;0.70;;
10041;SDS011;5061;49.068;12.058;2023-08-06T15:29:20;2.23;;;1.10;;
10041;SDS011;5061;49.068;12.058;2023-08-06T15:32:44;0.90;;;0.80;;
10041;SDS011;5061;49.068;12.058;2023-08-06T15:36:04;1.97;;;0.83;;
10041;SDS011;5061;49.068;12.058;2023-08-06T15:39:25;0.80;;;0.70;;
10041;SDS011;5061;49.068;12.058;2023-08-06T15:42:46;0.80;;;0.70;;
10041;SDS011;5061;49.068;12.058;2023-08-06T15:46:07;0.87;;;0.87;;
10041;SDS011;5061;49.068;12.058;2023-08-06T15:49:28;1.63;;;0.90;;
10041;SDS011;5061;49.068;12.058;2023-08-06T15:52:48;3.37;;;1.13;;
10041;SDS011;5061;49.068;12.058;2023-08-06T15:56:10;1.00;;;0.90;;
10041;SDS011;5061;49.068;12.058;2023-08-06T15:59:31;1.00;;;0.90;;
10041;SDS011;5061;49.068;12.058;2023-08-06T16:02:55;1.00;;;0.90;;
10041;SDS011;5061;49.068;12.058;2023-08-06T16:06:18;0.80;;;0.80;;
10041;SDS011;5061;49.068;12.058;2023-08-06T16:09:43;2.70;;;1.07;;
10041;SDS011;5061;49.068;12.058;2023-08-06T16:13:10;1.00;;;0.90;;
10041;SDS011;5061;49.068;12.058;2023-08-06T16:16:33;1.30;;;1.20;;
10041;SDS011;5061;49.068;12.058;2023-08-06T16:19:54;1.10;;;1.00;;
10041;SDS011;5061;49.068;12.058;2023-08-06T16:23:14;1.13;;;0.87;;
10041;SDS011;5061;49.068;12.058;2023-08-06T16:26:40;2.40;;;1.20;;
10041;SDS011;5061;49.068;12.058;2023-08-06T16:30:04;1.10;;;1.00;;
10041;SDS011;5061;49.068;12.058;2023-08-06T16:33:36;1.03;;;0.93;;
10041;SDS011;5061;49.068;12.058;2023-08-06T16:36:57;1.20;;;1.10;;
10041;SDS011;5061;49.068;12.058;2023-08-06T16:40:27;1.20;;;1.07;;
10041;SDS011;5061;49.068;12.058;2023-08-06T16:43:51;2.60;;;1.03;;
10041;SDS011;5061;49.068;12.058;2023-08-06T16:47:24;1.37;;;1.10;;
10041;SDS011;5061;49.068;12.058;2023-08-06T16:50:48;1.60;;;1.10;;
10041;SDS011;5061;49.068;12.058;2023-08-06T16:54:08;1.10;;;1.00;;
10041;SDS011;5061;49.068;12.058;2023-08-06T16:57:34;1.63;;;1.27;;
10041;SDS011;5061;49.068;12.058;2023-08-06T17:01:00;1.00;;;0.87;;
10041;SDS011;5061;49.068;12.058;2023-08-06T17:04:28;1.77;;;1.07;;
10041;SDS011;5061;49.068;12.058;2023-08-06T17:07:52;1.20;;;1.10;;
10041;SDS011;5061;49.068;12.058;2023-08-06T17:11:23;0.90;;;0.80;;
10041;SDS011;5061;49.068;12.058;2023-08-06T17:14:44;1.00;;;0.90;;
10041;SDS011;5061;49.068;12.058;2023-08-06T17:18:18;1.13;;;1.00;;
10041;SDS011;5061;49.068;12.058;2023-08-06T17:21:39;1.43;;;1.20;;
10041;SDS011;5061;49.068;12.058;2023-08-06T17:24:59;1.20;;;1.10;;
10041;SDS011;5061;49.068;12.058;2023-08-06T17:28:20;1.77;;;0.87;;
10041;SDS011;5061;49.068;12.058;2023-08-06T17:32:01;0.90;;;0.90;;
10041;SDS011;5061;49.068;12.058;2023-08-06T17:35:23;1.03;;;0.90;;
10041;SDS011;5061;49.068;12.058;2023-08-06T17:38:57;1.17;;;0.90;;
10041;SDS011;5061;49.068;12.058;2023-08-06T17:42:25;1.00;;;0.90;;
10041;SDS011;5061;49.068;12.058;2023-08-06T17:45:48;0.80;;;0.80;;
10041;SDS011;5061;49.068;12.058;2023-08-06T17:49:11;1.23;;;1.10;;
10041;SDS011;5061;49.068;12.058;2023-08-06T17:52:43;1.20;;;0.80;;
10041;SDS011;5061;49.068;12.058;2023-08-06T17:56:06;0.80;;;0.70;;
10041;SDS011;5061;49.068;12.058;2023-08-06T17:59:56;2.37;;;1.00;;
10041;SDS011;5061;49.068;12.058;2023-08-06T18:03:16;1.10;;;0.83;;
10041;SDS011;5061;49.068;12.058;2023-08-06T18:06:37;1.40;;;1.00;;
10041;SDS011;5061;49.068;12.058;2023-08-06T18:09:58;1.10;;;1.00;;
10041;SDS011;5061;49.068;12.058;2023-08-06T18:13:19;0.90;;;0.80;;
10041;SDS011;5061;49.068;12.058;2023-08-06T18:16:40;1.00;;;0.90;;
10041;SDS011;5061;49.068;12.058;2023-08-06T18:20:04;2.57;;;1.00;;
10041;SDS011;5061;49.068;12.058;2023-08-06T18:23:29;1.43;;;0.90;;
10041;SDS011;5061;49.068;12.058;2023-08-06T18:26:50;0.80;;;0.77;;
10041;SDS011;5061;49.068;12.058;2023-08-06T18:30:10;0.80;;;0.70;;
10041;SDS011;5061;49.068;12.058;2023-08-06T18:33:31;2.20;;;0.97;;
10041;SDS011;5061;49.068;12.058;2023-08-06T18:36:52;0.70;;;0.70;;
10041;SDS011;5061;49.068;12.058;2023-08-06T18:40:13;1.30;;;0.97;;
10041;SDS011;5061;49.068;12.058;2023-08-06T18:43:37;0.90;;;0.90;;
10041;SDS011;5061;49.068;12.058;2023-08-06T18:47:06;0.90;;;0.80;;
10041;SDS011;5061;49.068;12.058;2023-08-06T18:50:27;2.40;;;1.07;;
10041;SDS011;5061;49.068;12.058;2023-08-06T18:53:55;0.90;;;0.80;;
10041;SDS011;5061;49.068;12.058;2023-08-06T18:57:16;0.97;;;0.80;;
10041;SDS011;5061;49.068;12.058;2023-08-06T19:00:41;1.77;;;0.80;;
10041;SDS011;5061;49.068;12.058;2023-08-06T19:04:04;0.83;;;0.70;;
10041;SDS011;5061;49.068;12.058;2023-08-06T19:07:24;1.00;;;0.90;;
10041;SDS011;5061;49.068;12.058;2023-08-06T19:10:48;0.80;;;0.70;;
10041;SDS011;5061;49.068;12.058;2023-08-06T19:14:23;2.40;;;0.90;;
10041;SDS011;5061;49.068;12.058;2023-08-06T19:17:53;0.90;;;0.90;;
10041;SDS011;5061;49.068;12.058;2023-08-06T19:21:13;3.07;;;1.20;;
10041;SDS011;5061;49.068;12.058;2023-08-06T19:24:34;0.70;;;0.70;;
10041;SDS011;5061;49.068;12.058;2023-08-06T19:27:55;0.80;;;0.80;;
10041;SDS011;5061;49.068;12.058;2023-08-06T19:31:18;1.97;;;0.80;;
10041;SDS011;5061;49.068;12.058;2023-08-06T19:34:39;1.33;;;0.80;;
10041;SDS011;5061;49.068;12.058;2023-08-06T19:38:00;2.50;;;1.37;;
10041;SDS011;5061;49.068;12.058;2023-08-06T19:41:23;1.57;;;0.90;;
10041;SDS011;5061;49.068;12.058;2023-08-06T19:44:44;1.53;;;1.10;;
10041;SDS011;5061;49.068;12.058;2023-08-06T19:48:05;1.00;;;0.90;;
10041;SDS011;5061;49.068;12.058;2023-08-06T19:51:28;0.80;;;0.80;;
10041;SDS011;5061;49.068;12.058;2023-08-06T19:54:49;1.57;;;0.90;;
10041;SDS011;5061;49.068;12.058;2023-08-06T19:58:10;1.27;;;1.07;;
10041;SDS011;5061;49.068;12.058;2023-08-06T20:01:30;0.80;;;0.70;;
10041;SDS011;5061;49.068;12.058;2023-08-06T20:04:54;1.13;;;1.03;;
10041;SDS011;5061;49.068;12.058;2023-08-06T20:08:16;4.10;;;1.00;;
10041;SDS011;5061;49.068;12.058;2023-08-06T20:11:37;1.23;;;0.90;;
10041;SDS011;5061;49.068;12.058;2023-08-06T20:14:58;0.80;;;0.80;;
10041;SDS011;5061;49.068;12.058;2023-08-06T20:18:19;1.20;;;1.10;;
10041;SDS011;5061;49.068;12.058;2023-08-06T20:21:43;0.80;;;0.70;;
10041;SDS011;5061;49.068;12.058;2023-08-06T20:25:04;0.73;;;0.73;;
10041;SDS011;5061;49.068;12.058;2023-08-06T20:28:25;0.80;;;0.80;;
10041;SDS011;5061;49.068;12.058;2023-08-06T20:31:47;0.80;;;0.80;;
10041;SDS011;5061;49.068;12.058;2023-08-06T20:35:07;1.03;;;0.80;;
10041;SDS011;5061;49.068;12.058;2023-08-06T20:38:28;0.80;;;0.77;;
10041;SDS011;5061;49.068;12.058;2023-08-06T20:41:49;0.80;;;0.80;;
10041;SDS011;5061;49.068;12.058;2023-08-06T20:45:09;0.90;;;0.80;;
10041;SDS011;5061;49.068;12.058;2023-08-06T20:48:30;1.10;;;1.00;;
10041;SDS011;5061;49.068;12.058;2023-08-06T20:51:51;0.70;;;0.70;;